FDX9900 KAFW-KDEN
Flight info
| Callsign | FDX9900 |
|---|---|
| Flight time | 1h 32m |
| Altitude | 28000 |
| Route | NANDR3 ROLLS LBL HALEN NIIXX4 |
| Aircraft | B77L/H-SDE1E2E3FGHIJ2J3J4J5M1RWXY/LB1D1 |
Departure
| Time | 2026-05-04 17:31 |
|---|---|
| Airport | Perot Field/Fort Worth Alliance Airport (KAFW) |
Arrival
| Time | 2026-05-04 19:03 |
|---|---|
| Airport | Denver International Airport (KDEN) |
| Time | Latitude | Longitude | Altitude | Speed | Heading |
|---|---|---|---|---|---|
| 2026-05-04 17:04 | 32.99777 | -97.31307 | 735 ft | 0 kts | 350° |
| 2026-05-04 17:24 | 32.99775 | -97.31307 | 716 ft | 2 kts | 349° |
| 2026-05-04 17:24 | 32.99763 | -97.31229 | 715 ft | 8 kts | 63° |
| 2026-05-04 17:25 | 32.99813 | -97.31197 | 716 ft | 10 kts | 356° |
| 2026-05-04 17:25 | 32.99871 | -97.31325 | 715 ft | 10 kts | 261° |
| 2026-05-04 17:26 | 32.99848 | -97.31494 | 722 ft | 10 kts | 261° |
| 2026-05-04 17:26 | 32.99809 | -97.31747 | 731 ft | 10 kts | 260° |
| 2026-05-04 17:27 | 32.99867 | -97.31883 | 730 ft | 13 kts | 345° |
| 2026-05-04 17:27 | 33.00075 | -97.31932 | 735 ft | 17 kts | 351° |
| 2026-05-04 17:28 | 33.00344 | -97.31981 | 738 ft | 21 kts | 340° |
| 2026-05-04 17:29 | 33.00521 | -97.32193 | 736 ft | 1 kts | 260° |
| 2026-05-04 17:29 | 33.00405 | -97.32324 | 737 ft | 0 kts | 171° |
| 2026-05-04 17:31 | 33.00358 | -97.32315 | 738 ft | 39 kts | 170° |
| 2026-05-04 17:31 | 32.97076 | -97.31677 | 2059 ft | 212 kts | 173° |
| 2026-05-04 17:32 | 32.93643 | -97.31092 | 3077 ft | 266 kts | 174° |
| 2026-05-04 17:33 | 32.88492 | -97.29257 | 6258 ft | 282 kts | 134° |
| 2026-05-04 17:33 | 32.87518 | -97.27196 | 7142 ft | 293 kts | 109° |
| 2026-05-04 17:34 | 32.89202 | -97.20443 | 9826 ft | 313 kts | 37° |
| 2026-05-04 17:34 | 32.90983 | -97.18944 | 10654 ft | 316 kts | 31° |
| 2026-05-04 17:35 | 32.97179 | -97.14077 | 11794 ft | 387 kts | 31° |
| 2026-05-04 17:35 | 33.01675 | -97.10434 | 12986 ft | 393 kts | 31° |
| 2026-05-04 17:35 | 33.03941 | -97.08580 | 12953 ft | 395 kts | 31° |
| 2026-05-04 17:36 | 33.06206 | -97.06732 | 12949 ft | 395 kts | 31° |
| 2026-05-04 17:36 | 33.08589 | -97.05174 | 12972 ft | 390 kts | 18° |
| 2026-05-04 17:36 | 33.10301 | -97.04528 | 12969 ft | 389 kts | 11° |
| 2026-05-04 17:36 | 33.12991 | -97.04001 | 12975 ft | 386 kts | 360° |
| 2026-05-04 17:37 | 33.15643 | -97.03997 | 12978 ft | 386 kts | 356° |
| 2026-05-04 17:37 | 33.18358 | -97.04052 | 12974 ft | 386 kts | 356° |
| 2026-05-04 17:37 | 33.21011 | -97.04074 | 12970 ft | 383 kts | 356° |
| 2026-05-04 17:37 | 33.23619 | -97.04458 | 12969 ft | 376 kts | 341° |
| 2026-05-04 17:38 | 33.26027 | -97.05618 | 12984 ft | 373 kts | 329° |
| 2026-05-04 17:38 | 33.28146 | -97.07371 | 12959 ft | 369 kts | 318° |
| 2026-05-04 17:38 | 33.30076 | -97.09391 | 12975 ft | 370 kts | 317° |
| 2026-05-04 17:38 | 33.32010 | -97.11433 | 12979 ft | 371 kts | 317° |
| 2026-05-04 17:39 | 33.35948 | -97.15552 | 13690 ft | 376 kts | 317° |
| 2026-05-04 17:39 | 33.37927 | -97.17601 | 14672 ft | 376 kts | 317° |
| 2026-05-04 17:39 | 33.39915 | -97.19654 | 15594 ft | 379 kts | 317° |
| 2026-05-04 17:40 | 33.41895 | -97.21696 | 16395 ft | 384 kts | 317° |
| 2026-05-04 17:40 | 33.43984 | -97.23787 | 17203 ft | 390 kts | 321° |
| 2026-05-04 17:40 | 33.46198 | -97.25622 | 18009 ft | 395 kts | 326° |
| 2026-05-04 17:40 | 33.48655 | -97.27239 | 18766 ft | 400 kts | 330° |
| 2026-05-04 17:41 | 33.51146 | -97.28746 | 19525 ft | 402 kts | 330° |
| 2026-05-04 17:41 | 33.53622 | -97.30232 | 20272 ft | 404 kts | 330° |
| 2026-05-04 17:41 | 33.56146 | -97.31746 | 21008 ft | 406 kts | 330° |
| 2026-05-04 17:41 | 33.58679 | -97.33272 | 21728 ft | 409 kts | 329° |
| 2026-05-04 17:42 | 33.61230 | -97.34815 | 22423 ft | 412 kts | 329° |
| 2026-05-04 17:42 | 33.63802 | -97.36377 | 23128 ft | 415 kts | 329° |
| 2026-05-04 17:42 | 33.66384 | -97.37950 | 23765 ft | 418 kts | 329° |
| 2026-05-04 17:42 | 33.68980 | -97.39533 | 24378 ft | 419 kts | 329° |
| 2026-05-04 17:43 | 33.71580 | -97.41120 | 25044 ft | 419 kts | 328° |
| 2026-05-04 17:43 | 33.74181 | -97.42710 | 25698 ft | 420 kts | 328° |
| 2026-05-04 17:43 | 33.76788 | -97.44305 | 26305 ft | 421 kts | 328° |
| 2026-05-04 17:43 | 33.79407 | -97.45909 | 26882 ft | 423 kts | 328° |
| 2026-05-04 17:44 | 33.82031 | -97.47517 | 27474 ft | 425 kts | 328° |
| 2026-05-04 17:44 | 33.84666 | -97.49132 | 27924 ft | 426 kts | 327° |
| 2026-05-04 17:44 | 33.87317 | -97.50760 | 27871 ft | 428 kts | 327° |
| 2026-05-04 17:44 | 33.89971 | -97.52389 | 27891 ft | 428 kts | 327° |
| 2026-05-04 17:45 | 33.92622 | -97.54016 | 27871 ft | 427 kts | 327° |
| 2026-05-04 17:45 | 33.95260 | -97.55636 | 27877 ft | 426 kts | 327° |
| 2026-05-04 17:45 | 33.97906 | -97.57263 | 27876 ft | 426 kts | 327° |
| 2026-05-04 17:45 | 34.00550 | -97.58891 | 27869 ft | 427 kts | 327° |
| 2026-05-04 17:46 | 34.03192 | -97.60518 | 27869 ft | 427 kts | 327° |
| 2026-05-04 17:46 | 34.05834 | -97.62148 | 27867 ft | 427 kts | 327° |
| 2026-05-04 17:46 | 34.08474 | -97.63777 | 27867 ft | 427 kts | 327° |
| 2026-05-04 17:46 | 34.11083 | -97.65388 | 27868 ft | 427 kts | 327° |
| 2026-05-04 17:47 | 34.13760 | -97.67042 | 27860 ft | 427 kts | 327° |
| 2026-05-04 17:47 | 34.16370 | -97.68655 | 27863 ft | 427 kts | 327° |
| 2026-05-04 17:47 | 34.19012 | -97.70289 | 27858 ft | 427 kts | 327° |
| 2026-05-04 17:47 | 34.21654 | -97.71925 | 27855 ft | 427 kts | 327° |
| 2026-05-04 17:48 | 34.24295 | -97.73561 | 27861 ft | 426 kts | 327° |
| 2026-05-04 17:48 | 34.26930 | -97.75195 | 27859 ft | 426 kts | 327° |
| 2026-05-04 17:48 | 34.29571 | -97.76833 | 27862 ft | 426 kts | 327° |
| 2026-05-04 17:48 | 34.32210 | -97.78472 | 27866 ft | 426 kts | 327° |
| 2026-05-04 17:49 | 34.34843 | -97.80108 | 27863 ft | 426 kts | 327° |
| 2026-05-04 17:49 | 34.37486 | -97.81751 | 27865 ft | 426 kts | 327° |
| 2026-05-04 17:49 | 34.40121 | -97.83391 | 27868 ft | 426 kts | 327° |
| 2026-05-04 17:49 | 34.42757 | -97.85032 | 27870 ft | 426 kts | 327° |
| 2026-05-04 17:50 | 34.45391 | -97.86673 | 27872 ft | 426 kts | 327° |
| 2026-05-04 17:50 | 34.48028 | -97.88317 | 27872 ft | 426 kts | 327° |
| 2026-05-04 17:50 | 34.50572 | -97.89905 | 27871 ft | 426 kts | 327° |
| 2026-05-04 17:50 | 34.52902 | -97.91360 | 27874 ft | 426 kts | 327° |
| 2026-05-04 17:51 | 34.55537 | -97.93003 | 27867 ft | 426 kts | 327° |
| 2026-05-04 17:51 | 34.58173 | -97.94646 | 27868 ft | 425 kts | 327° |
| 2026-05-04 17:51 | 34.60805 | -97.96284 | 27867 ft | 425 kts | 327° |
| 2026-05-04 17:51 | 34.63436 | -97.97921 | 27858 ft | 425 kts | 327° |
| 2026-05-04 17:52 | 34.66066 | -97.99556 | 27857 ft | 425 kts | 327° |
| 2026-05-04 17:52 | 34.68703 | -98.01192 | 27848 ft | 425 kts | 327° |
| 2026-05-04 17:52 | 34.71321 | -98.02859 | 27842 ft | 424 kts | 325° |
| 2026-05-04 17:52 | 34.73943 | -98.04512 | 27832 ft | 425 kts | 327° |
| 2026-05-04 17:53 | 34.76613 | -98.06087 | 27809 ft | 426 kts | 328° |
| 2026-05-04 17:53 | 34.79290 | -98.07634 | 27818 ft | 426 kts | 328° |
| 2026-05-04 17:53 | 34.81963 | -98.09170 | 27812 ft | 427 kts | 328° |
| 2026-05-04 17:53 | 34.84649 | -98.10709 | 27799 ft | 427 kts | 328° |
| 2026-05-04 17:54 | 34.87339 | -98.12246 | 27790 ft | 427 kts | 328° |
| 2026-05-04 17:54 | 34.90032 | -98.13780 | 27785 ft | 427 kts | 328° |
| 2026-05-04 17:54 | 34.92723 | -98.15313 | 27780 ft | 428 kts | 328° |
| 2026-05-04 17:54 | 34.95408 | -98.16880 | 27768 ft | 426 kts | 326° |
| 2026-05-04 17:55 | 34.97830 | -98.18480 | 27773 ft | 424 kts | 324° |
| 2026-05-04 17:55 | 35.00389 | -98.20261 | 27762 ft | 424 kts | 324° |
| 2026-05-04 17:55 | 35.02978 | -98.21995 | 27755 ft | 426 kts | 326° |
| 2026-05-04 17:55 | 35.05623 | -98.23641 | 27759 ft | 426 kts | 327° |
| 2026-05-04 17:56 | 35.08279 | -98.25250 | 27759 ft | 427 kts | 327° |
| 2026-05-04 17:56 | 35.10944 | -98.26852 | 27759 ft | 427 kts | 327° |
| 2026-05-04 17:56 | 35.13607 | -98.28447 | 27761 ft | 427 kts | 327° |
| 2026-05-04 17:56 | 35.16274 | -98.30046 | 27758 ft | 427 kts | 327° |
| 2026-05-04 17:57 | 35.18882 | -98.31737 | 27763 ft | 424 kts | 324° |
| 2026-05-04 17:57 | 35.21428 | -98.33558 | 27765 ft | 423 kts | 323° |
| 2026-05-04 17:57 | 35.23951 | -98.35423 | 27761 ft | 423 kts | 323° |
| 2026-05-04 17:57 | 35.26411 | -98.37359 | 27738 ft | 415 kts | 316° |
| 2026-05-04 17:58 | 35.28420 | -98.39837 | 27789 ft | 410 kts | 306° |
| 2026-05-04 17:58 | 35.30169 | -98.42602 | 27762 ft | 411 kts | 303° |
| 2026-05-04 17:58 | 35.31856 | -98.45423 | 27768 ft | 412 kts | 303° |
| 2026-05-04 17:58 | 35.33586 | -98.48238 | 27769 ft | 414 kts | 304° |
| 2026-05-04 17:59 | 35.35375 | -98.51013 | 27785 ft | 415 kts | 306° |
| 2026-05-04 17:59 | 35.37209 | -98.53739 | 27778 ft | 416 kts | 307° |
| 2026-05-04 17:59 | 35.40957 | -98.59085 | 27806 ft | 415 kts | 307° |
| 2026-05-04 18:00 | 35.42863 | -98.61751 | 27801 ft | 415 kts | 308° |
| 2026-05-04 18:00 | 35.44771 | -98.64406 | 27800 ft | 414 kts | 308° |
| 2026-05-04 18:00 | 35.46647 | -98.67014 | 27805 ft | 413 kts | 308° |
| 2026-05-04 18:00 | 35.48572 | -98.69691 | 27806 ft | 412 kts | 308° |
| 2026-05-04 18:01 | 35.50459 | -98.72318 | 27811 ft | 412 kts | 307° |
| 2026-05-04 18:01 | 35.52356 | -98.74962 | 27808 ft | 412 kts | 307° |
| 2026-05-04 18:01 | 35.54245 | -98.77600 | 27807 ft | 412 kts | 307° |
| 2026-05-04 18:02 | 35.58025 | -98.82887 | 27795 ft | 412 kts | 307° |
| 2026-05-04 18:02 | 35.59915 | -98.85533 | 27787 ft | 412 kts | 307° |
| 2026-05-04 18:02 | 35.61780 | -98.88147 | 27780 ft | 413 kts | 307° |
| 2026-05-04 18:02 | 35.63673 | -98.90803 | 27778 ft | 413 kts | 307° |
| 2026-05-04 18:03 | 35.65566 | -98.93460 | 27763 ft | 414 kts | 307° |
| 2026-05-04 18:03 | 35.67464 | -98.96126 | 27747 ft | 414 kts | 307° |
| 2026-05-04 18:03 | 35.69358 | -98.98788 | 27738 ft | 414 kts | 307° |
| 2026-05-04 18:03 | 35.71030 | -99.01615 | 27706 ft | 406 kts | 296° |
| 2026-05-04 18:04 | 35.72223 | -99.04757 | 27729 ft | 406 kts | 291° |
| 2026-05-04 18:04 | 35.73242 | -99.08013 | 27709 ft | 408 kts | 289° |
| 2026-05-04 18:04 | 35.75131 | -99.14615 | 27713 ft | 410 kts | 288° |
| 2026-05-04 18:05 | 35.76059 | -99.17945 | 27707 ft | 410 kts | 288° |
| 2026-05-04 18:05 | 35.76978 | -99.21263 | 27704 ft | 410 kts | 288° |
| 2026-05-04 18:05 | 35.77899 | -99.24593 | 27706 ft | 410 kts | 288° |
| 2026-05-04 18:05 | 35.78817 | -99.27918 | 27704 ft | 410 kts | 288° |
| 2026-05-04 18:06 | 35.80657 | -99.34591 | 27691 ft | 409 kts | 288° |
| 2026-05-04 18:06 | 35.81573 | -99.37916 | 27693 ft | 408 kts | 288° |
| 2026-05-04 18:06 | 35.82482 | -99.41216 | 27696 ft | 408 kts | 288° |
| 2026-05-04 18:07 | 35.83382 | -99.44486 | 27695 ft | 407 kts | 288° |
| 2026-05-04 18:07 | 35.84291 | -99.47792 | 27689 ft | 407 kts | 288° |
| 2026-05-04 18:07 | 35.85212 | -99.51139 | 27691 ft | 409 kts | 288° |
| 2026-05-04 18:07 | 35.86132 | -99.54490 | 27696 ft | 415 kts | 288° |
| 2026-05-04 18:08 | 35.87060 | -99.57866 | 27684 ft | 417 kts | 288° |
| 2026-05-04 18:08 | 35.88000 | -99.61231 | 27677 ft | 411 kts | 290° |
| 2026-05-04 18:08 | 35.89456 | -99.64263 | 27703 ft | 415 kts | 305° |
| 2026-05-04 18:08 | 35.91436 | -99.66890 | 27682 ft | 422 kts | 311° |
| 2026-05-04 18:09 | 35.95777 | -99.71830 | 27693 ft | 426 kts | 312° |
| 2026-05-04 18:09 | 36.00010 | -99.76878 | 27701 ft | 427 kts | 310° |
| 2026-05-04 18:10 | 36.02085 | -99.79502 | 27708 ft | 427 kts | 309° |
| 2026-05-04 18:10 | 36.04158 | -99.82192 | 27711 ft | 427 kts | 309° |
| 2026-05-04 18:10 | 36.06160 | -99.84831 | 27704 ft | 426 kts | 308° |
| 2026-05-04 18:10 | 36.08205 | -99.87549 | 27716 ft | 426 kts | 308° |
| 2026-05-04 18:11 | 36.10189 | -99.90196 | 27717 ft | 425 kts | 308° |
| 2026-05-04 18:11 | 36.12196 | -99.92879 | 27719 ft | 425 kts | 308° |
| 2026-05-04 18:11 | 36.14200 | -99.95559 | 27724 ft | 424 kts | 308° |
| 2026-05-04 18:11 | 36.16201 | -99.98236 | 27712 ft | 424 kts | 308° |
| 2026-05-04 18:12 | 36.18210 | -100.00923 | 27720 ft | 424 kts | 308° |
| 2026-05-04 18:12 | 36.20212 | -100.03601 | 27719 ft | 424 kts | 308° |
| 2026-05-04 18:12 | 36.22215 | -100.06283 | 27710 ft | 424 kts | 308° |
| 2026-05-04 18:12 | 36.24218 | -100.08967 | 27706 ft | 424 kts | 308° |
| 2026-05-04 18:13 | 36.26220 | -100.11650 | 27709 ft | 424 kts | 308° |
| 2026-05-04 18:13 | 36.28223 | -100.14337 | 27698 ft | 424 kts | 308° |
| 2026-05-04 18:13 | 36.32225 | -100.19714 | 27687 ft | 424 kts | 308° |
| 2026-05-04 18:14 | 36.34228 | -100.22409 | 27685 ft | 425 kts | 308° |
| 2026-05-04 18:14 | 36.36221 | -100.25093 | 27682 ft | 425 kts | 308° |
| 2026-05-04 18:14 | 36.38230 | -100.27800 | 27681 ft | 425 kts | 308° |
| 2026-05-04 18:15 | 36.42229 | -100.33195 | 27695 ft | 425 kts | 308° |
| 2026-05-04 18:15 | 36.46226 | -100.38596 | 27714 ft | 425 kts | 308° |
| 2026-05-04 18:15 | 36.48227 | -100.41302 | 27717 ft | 425 kts | 308° |
| 2026-05-04 18:16 | 36.50090 | -100.43825 | 27727 ft | 425 kts | 308° |
| 2026-05-04 18:16 | 36.52064 | -100.46494 | 27693 ft | 414 kts | 308° |
| 2026-05-04 18:16 | 36.54030 | -100.49160 | 27751 ft | 423 kts | 308° |
| 2026-05-04 18:17 | 36.58036 | -100.54608 | 27741 ft | 426 kts | 308° |
| 2026-05-04 18:17 | 36.60033 | -100.57321 | 27744 ft | 425 kts | 308° |
| 2026-05-04 18:17 | 36.64011 | -100.62733 | 27730 ft | 423 kts | 308° |
| 2026-05-04 18:18 | 36.65996 | -100.65436 | 27744 ft | 422 kts | 308° |
| 2026-05-04 18:18 | 36.67975 | -100.68137 | 27720 ft | 422 kts | 308° |
| 2026-05-04 18:18 | 36.69956 | -100.70841 | 27725 ft | 422 kts | 308° |
| 2026-05-04 18:18 | 36.71935 | -100.73545 | 27717 ft | 423 kts | 308° |
| 2026-05-04 18:19 | 36.75906 | -100.78978 | 27734 ft | 424 kts | 307° |
| 2026-05-04 18:19 | 36.77893 | -100.81699 | 27727 ft | 424 kts | 308° |
| 2026-05-04 18:19 | 36.79877 | -100.84419 | 27733 ft | 425 kts | 308° |
| 2026-05-04 18:20 | 36.81192 | -100.86223 | 27741 ft | 425 kts | 307° |
| 2026-05-04 18:20 | 36.83182 | -100.88953 | 27755 ft | 425 kts | 307° |
| 2026-05-04 18:20 | 36.85168 | -100.91681 | 27768 ft | 424 kts | 307° |
| 2026-05-04 18:20 | 36.87153 | -100.94410 | 27775 ft | 425 kts | 307° |
| 2026-05-04 18:21 | 36.89139 | -100.97143 | 27783 ft | 424 kts | 307° |
| 2026-05-04 18:21 | 36.91120 | -100.99871 | 27790 ft | 424 kts | 307° |
| 2026-05-04 18:21 | 36.93102 | -101.02603 | 27791 ft | 424 kts | 307° |
| 2026-05-04 18:21 | 36.95080 | -101.05332 | 27790 ft | 423 kts | 307° |
| 2026-05-04 18:22 | 36.97052 | -101.08054 | 27790 ft | 423 kts | 307° |
| 2026-05-04 18:22 | 36.99025 | -101.10780 | 27785 ft | 423 kts | 307° |
| 2026-05-04 18:22 | 37.01001 | -101.13512 | 27778 ft | 422 kts | 307° |
| 2026-05-04 18:22 | 37.02968 | -101.16234 | 27771 ft | 422 kts | 307° |
| 2026-05-04 18:23 | 37.04933 | -101.18957 | 27766 ft | 421 kts | 307° |
| 2026-05-04 18:23 | 37.06898 | -101.21682 | 27766 ft | 421 kts | 307° |
| 2026-05-04 18:23 | 37.08850 | -101.24391 | 27779 ft | 421 kts | 307° |
| 2026-05-04 18:23 | 37.10813 | -101.27117 | 27788 ft | 420 kts | 307° |
| 2026-05-04 18:24 | 37.12772 | -101.29839 | 27788 ft | 420 kts | 307° |
| 2026-05-04 18:24 | 37.14725 | -101.32556 | 27789 ft | 420 kts | 307° |
| 2026-05-04 18:24 | 37.16684 | -101.35284 | 27789 ft | 420 kts | 307° |
| 2026-05-04 18:24 | 37.18642 | -101.38011 | 27792 ft | 421 kts | 307° |
| 2026-05-04 18:25 | 37.20597 | -101.40738 | 27791 ft | 421 kts | 307° |
| 2026-05-04 18:25 | 37.22554 | -101.43469 | 27788 ft | 421 kts | 307° |
| 2026-05-04 18:25 | 37.24510 | -101.46201 | 27780 ft | 421 kts | 307° |
| 2026-05-04 18:25 | 37.26465 | -101.48935 | 27774 ft | 421 kts | 307° |
| 2026-05-04 18:26 | 37.28421 | -101.51671 | 27762 ft | 421 kts | 307° |
| 2026-05-04 18:26 | 37.30376 | -101.54411 | 27739 ft | 421 kts | 307° |
| 2026-05-04 18:26 | 37.32331 | -101.57150 | 27729 ft | 421 kts | 307° |
| 2026-05-04 18:26 | 37.34285 | -101.59891 | 27714 ft | 421 kts | 307° |
| 2026-05-04 18:27 | 37.36235 | -101.62628 | 27712 ft | 421 kts | 307° |
| 2026-05-04 18:27 | 37.38187 | -101.65370 | 27720 ft | 421 kts | 307° |
| 2026-05-04 18:27 | 37.40146 | -101.68126 | 27730 ft | 421 kts | 307° |
| 2026-05-04 18:27 | 37.42093 | -101.70866 | 27741 ft | 421 kts | 307° |
| 2026-05-04 18:28 | 37.44046 | -101.73617 | 27745 ft | 421 kts | 307° |
| 2026-05-04 18:28 | 37.45998 | -101.76369 | 27749 ft | 421 kts | 307° |
| 2026-05-04 18:28 | 37.47946 | -101.79119 | 27758 ft | 421 kts | 307° |
| 2026-05-04 18:28 | 37.49899 | -101.81876 | 27763 ft | 421 kts | 307° |
| 2026-05-04 18:29 | 37.51847 | -101.84629 | 27760 ft | 422 kts | 307° |
| 2026-05-04 18:29 | 37.53799 | -101.87392 | 27756 ft | 422 kts | 307° |
| 2026-05-04 18:29 | 37.55725 | -101.90119 | 27750 ft | 422 kts | 307° |
| 2026-05-04 18:29 | 37.57702 | -101.92921 | 27739 ft | 423 kts | 307° |
| 2026-05-04 18:30 | 37.61579 | -101.98423 | 27722 ft | 423 kts | 307° |
| 2026-05-04 18:30 | 37.63536 | -102.01203 | 27712 ft | 423 kts | 307° |
| 2026-05-04 18:30 | 37.65491 | -102.03984 | 27704 ft | 424 kts | 307° |
| 2026-05-04 18:31 | 37.67448 | -102.06768 | 27691 ft | 424 kts | 307° |
| 2026-05-04 18:31 | 37.69404 | -102.09555 | 27683 ft | 425 kts | 307° |
| 2026-05-04 18:31 | 37.71363 | -102.12347 | 27657 ft | 425 kts | 307° |
| 2026-05-04 18:31 | 37.73321 | -102.15142 | 27667 ft | 425 kts | 307° |
| 2026-05-04 18:32 | 37.75280 | -102.17938 | 27671 ft | 425 kts | 307° |
| 2026-05-04 18:32 | 37.77240 | -102.20741 | 27668 ft | 426 kts | 307° |
| 2026-05-04 18:32 | 37.79200 | -102.23544 | 27676 ft | 426 kts | 307° |
| 2026-05-04 18:32 | 37.81161 | -102.26353 | 27663 ft | 426 kts | 307° |
| 2026-05-04 18:33 | 37.83125 | -102.29167 | 27680 ft | 426 kts | 307° |
| 2026-05-04 18:33 | 37.85086 | -102.31979 | 27659 ft | 427 kts | 307° |
| 2026-05-04 18:33 | 37.87047 | -102.34794 | 27688 ft | 426 kts | 307° |
| 2026-05-04 18:33 | 37.89012 | -102.37617 | 27712 ft | 427 kts | 307° |
| 2026-05-04 18:34 | 37.90971 | -102.40435 | 27717 ft | 427 kts | 306° |
| 2026-05-04 18:34 | 37.92932 | -102.43257 | 27734 ft | 427 kts | 306° |
| 2026-05-04 18:34 | 37.94892 | -102.46082 | 27744 ft | 427 kts | 306° |
| 2026-05-04 18:34 | 37.96857 | -102.48916 | 27775 ft | 427 kts | 306° |
| 2026-05-04 18:35 | 37.98811 | -102.51736 | 27781 ft | 428 kts | 306° |
| 2026-05-04 18:35 | 38.00776 | -102.54575 | 27790 ft | 428 kts | 306° |
| 2026-05-04 18:35 | 38.02745 | -102.57421 | 27808 ft | 428 kts | 306° |
| 2026-05-04 18:35 | 38.04715 | -102.60270 | 27809 ft | 429 kts | 306° |
| 2026-05-04 18:36 | 38.06679 | -102.63116 | 27812 ft | 429 kts | 306° |
| 2026-05-04 18:36 | 38.08640 | -102.65958 | 27814 ft | 429 kts | 306° |
| 2026-05-04 18:36 | 38.10608 | -102.68814 | 27811 ft | 429 kts | 306° |
| 2026-05-04 18:36 | 38.12576 | -102.71671 | 27808 ft | 430 kts | 306° |
| 2026-05-04 18:37 | 38.14541 | -102.74528 | 27807 ft | 430 kts | 306° |
| 2026-05-04 18:37 | 38.16507 | -102.77387 | 27799 ft | 430 kts | 306° |
| 2026-05-04 18:37 | 38.18476 | -102.80254 | 27789 ft | 430 kts | 306° |
| 2026-05-04 18:37 | 38.20443 | -102.83121 | 27773 ft | 431 kts | 306° |
| 2026-05-04 18:38 | 38.22413 | -102.85994 | 27763 ft | 431 kts | 306° |
| 2026-05-04 18:38 | 38.24382 | -102.88870 | 27740 ft | 432 kts | 306° |
| 2026-05-04 18:38 | 38.26356 | -102.91754 | 27725 ft | 432 kts | 306° |
| 2026-05-04 18:38 | 38.28323 | -102.94633 | 27719 ft | 432 kts | 306° |
| 2026-05-04 18:39 | 38.30292 | -102.97514 | 27702 ft | 432 kts | 306° |
| 2026-05-04 18:39 | 38.32270 | -103.00412 | 27687 ft | 433 kts | 306° |
| 2026-05-04 18:39 | 38.34246 | -103.03311 | 27688 ft | 433 kts | 306° |
| 2026-05-04 18:39 | 38.36223 | -103.06213 | 27684 ft | 434 kts | 306° |
| 2026-05-04 18:40 | 38.38199 | -103.09116 | 27678 ft | 434 kts | 306° |
| 2026-05-04 18:40 | 38.40173 | -103.12018 | 27693 ft | 434 kts | 306° |
| 2026-05-04 18:40 | 38.42144 | -103.14918 | 27678 ft | 426 kts | 306° |
| 2026-05-04 18:40 | 38.44054 | -103.17722 | 27452 ft | 414 kts | 306° |
| 2026-05-04 18:41 | 38.45919 | -103.20465 | 27168 ft | 403 kts | 306° |
| 2026-05-04 18:41 | 38.47746 | -103.23158 | 26900 ft | 399 kts | 306° |
| 2026-05-04 18:41 | 38.49547 | -103.25821 | 26654 ft | 396 kts | 306° |
| 2026-05-04 18:41 | 38.51346 | -103.28486 | 26452 ft | 395 kts | 306° |
| 2026-05-04 18:42 | 38.53139 | -103.31142 | 26521 ft | 395 kts | 306° |
| 2026-05-04 18:42 | 38.54942 | -103.33818 | 26516 ft | 399 kts | 306° |
| 2026-05-04 18:42 | 38.56753 | -103.36506 | 26527 ft | 401 kts | 306° |
| 2026-05-04 18:42 | 38.58573 | -103.39207 | 26521 ft | 401 kts | 306° |
| 2026-05-04 18:43 | 38.60395 | -103.41913 | 26525 ft | 402 kts | 306° |
| 2026-05-04 18:43 | 38.62220 | -103.44622 | 26524 ft | 402 kts | 306° |
| 2026-05-04 18:43 | 38.64042 | -103.47334 | 26526 ft | 402 kts | 306° |
| 2026-05-04 18:43 | 38.65866 | -103.50049 | 26519 ft | 402 kts | 306° |
| 2026-05-04 18:44 | 38.67690 | -103.52766 | 26518 ft | 402 kts | 306° |
| 2026-05-04 18:44 | 38.68899 | -103.54567 | 26525 ft | 402 kts | 306° |
| 2026-05-04 18:44 | 38.71335 | -103.58199 | 26522 ft | 402 kts | 306° |
| 2026-05-04 18:44 | 38.73153 | -103.60913 | 26390 ft | 400 kts | 306° |
| 2026-05-04 18:45 | 38.74959 | -103.63608 | 25867 ft | 392 kts | 306° |
| 2026-05-04 18:45 | 38.76673 | -103.66160 | 25515 ft | 364 kts | 306° |
| 2026-05-04 18:45 | 38.78270 | -103.68535 | 25127 ft | 341 kts | 306° |
| 2026-05-04 18:45 | 38.79782 | -103.70794 | 24511 ft | 328 kts | 306° |
| 2026-05-04 18:46 | 38.81253 | -103.73002 | 23704 ft | 324 kts | 306° |
| 2026-05-04 18:46 | 38.82710 | -103.75198 | 22673 ft | 325 kts | 306° |
| 2026-05-04 18:46 | 38.84178 | -103.77413 | 21584 ft | 326 kts | 307° |
| 2026-05-04 18:46 | 38.85648 | -103.79628 | 20584 ft | 326 kts | 308° |
| 2026-05-04 18:47 | 38.87141 | -103.81879 | 19866 ft | 334 kts | 308° |
| 2026-05-04 18:47 | 38.88643 | -103.84142 | 19495 ft | 332 kts | 308° |
| 2026-05-04 18:47 | 38.90134 | -103.86385 | 19214 ft | 327 kts | 309° |
| 2026-05-04 18:47 | 38.91599 | -103.88592 | 18884 ft | 324 kts | 309° |
| 2026-05-04 18:48 | 38.93062 | -103.90797 | 18472 ft | 324 kts | 309° |
| 2026-05-04 18:48 | 38.94521 | -103.92997 | 18057 ft | 324 kts | 309° |
| 2026-05-04 18:48 | 38.95980 | -103.95202 | 17628 ft | 323 kts | 309° |
| 2026-05-04 18:48 | 38.97427 | -103.97387 | 17253 ft | 320 kts | 309° |
| 2026-05-04 18:49 | 38.98865 | -103.99562 | 16848 ft | 318 kts | 309° |
| 2026-05-04 18:49 | 39.00289 | -104.01715 | 16502 ft | 315 kts | 309° |
| 2026-05-04 18:49 | 39.01707 | -104.03862 | 16059 ft | 315 kts | 309° |
| 2026-05-04 18:49 | 39.03120 | -104.06001 | 15729 ft | 311 kts | 309° |
| 2026-05-04 18:50 | 39.04519 | -104.08124 | 15313 ft | 311 kts | 309° |
| 2026-05-04 18:50 | 39.05917 | -104.10243 | 14958 ft | 309 kts | 309° |
| 2026-05-04 18:50 | 39.07294 | -104.12333 | 14625 ft | 306 kts | 309° |
| 2026-05-04 18:50 | 39.08677 | -104.14433 | 14157 ft | 308 kts | 309° |
| 2026-05-04 18:51 | 39.10051 | -104.16522 | 13865 ft | 303 kts | 309° |
| 2026-05-04 18:51 | 39.11413 | -104.18594 | 13460 ft | 304 kts | 309° |
| 2026-05-04 18:51 | 39.12774 | -104.20667 | 13095 ft | 301 kts | 309° |
| 2026-05-04 18:51 | 39.14121 | -104.22718 | 12738 ft | 299 kts | 309° |
| 2026-05-04 18:52 | 39.15466 | -104.24766 | 12349 ft | 298 kts | 309° |
| 2026-05-04 18:52 | 39.16797 | -104.26796 | 12030 ft | 295 kts | 309° |
| 2026-05-04 18:52 | 39.18106 | -104.28793 | 11857 ft | 287 kts | 309° |
| 2026-05-04 18:52 | 39.19375 | -104.30731 | 11855 ft | 282 kts | 310° |
| 2026-05-04 18:53 | 39.20656 | -104.32688 | 11861 ft | 291 kts | 309° |
| 2026-05-04 18:53 | 39.21980 | -104.34714 | 11664 ft | 298 kts | 309° |
| 2026-05-04 18:53 | 39.23318 | -104.36761 | 11345 ft | 300 kts | 309° |
| 2026-05-04 18:53 | 39.24650 | -104.38798 | 11091 ft | 293 kts | 309° |
| 2026-05-04 18:54 | 39.25946 | -104.40783 | 10923 ft | 283 kts | 309° |
| 2026-05-04 18:54 | 39.27193 | -104.42692 | 10859 ft | 276 kts | 309° |
| 2026-05-04 18:54 | 39.28443 | -104.44612 | 10854 ft | 285 kts | 309° |
| 2026-05-04 18:54 | 39.29743 | -104.46607 | 10854 ft | 294 kts | 309° |
| 2026-05-04 18:55 | 39.31056 | -104.48624 | 10851 ft | 299 kts | 309° |
| 2026-05-04 18:55 | 39.33722 | -104.52721 | 10862 ft | 296 kts | 309° |
| 2026-05-04 18:55 | 39.35057 | -104.54775 | 10863 ft | 297 kts | 309° |
| 2026-05-04 18:56 | 39.36358 | -104.56778 | 10886 ft | 295 kts | 309° |
| 2026-05-04 18:56 | 39.37693 | -104.58833 | 10886 ft | 295 kts | 309° |
| 2026-05-04 18:56 | 39.38998 | -104.60843 | 10878 ft | 297 kts | 309° |
| 2026-05-04 18:56 | 39.40324 | -104.62890 | 10914 ft | 299 kts | 309° |
| 2026-05-04 18:57 | 39.41678 | -104.64881 | 10920 ft | 291 kts | 318° |
| 2026-05-04 18:57 | 39.43436 | -104.66116 | 10950 ft | 289 kts | 344° |
| 2026-05-04 18:57 | 39.45437 | -104.66495 | 10949 ft | 293 kts | 355° |
| 2026-05-04 18:57 | 39.47484 | -104.66520 | 10967 ft | 296 kts | 359° |
| 2026-05-04 18:58 | 39.49546 | -104.66463 | 10970 ft | 297 kts | 359° |
| 2026-05-04 18:58 | 39.51618 | -104.66414 | 10971 ft | 299 kts | 359° |
| 2026-05-04 18:58 | 39.53703 | -104.66382 | 10946 ft | 298 kts | 359° |
| 2026-05-04 18:58 | 39.55796 | -104.66359 | 10547 ft | 303 kts | 358° |
| 2026-05-04 18:59 | 39.57908 | -104.66336 | 10158 ft | 302 kts | 359° |
| 2026-05-04 18:59 | 39.60006 | -104.66310 | 9815 ft | 301 kts | 358° |
| 2026-05-04 18:59 | 39.62102 | -104.66288 | 9408 ft | 302 kts | 359° |
| 2026-05-04 18:59 | 39.64195 | -104.66266 | 9019 ft | 301 kts | 358° |
| 2026-05-04 19:00 | 39.66264 | -104.66240 | 8595 ft | 290 kts | 358° |
| 2026-05-04 19:00 | 39.68224 | -104.66216 | 8261 ft | 272 kts | 358° |
| 2026-05-04 19:00 | 39.70057 | -104.66196 | 7922 ft | 256 kts | 358° |
| 2026-05-04 19:00 | 39.71782 | -104.66179 | 7605 ft | 239 kts | 358° |
| 2026-05-04 19:01 | 39.73379 | -104.66158 | 7313 ft | 221 kts | 357° |
| 2026-05-04 19:01 | 39.74855 | -104.66139 | 7021 ft | 203 kts | 356° |
| 2026-05-04 19:01 | 39.76206 | -104.66126 | 6751 ft | 185 kts | 357° |
| 2026-05-04 19:01 | 39.77429 | -104.66113 | 6545 ft | 166 kts | 356° |
| 2026-05-04 19:02 | 39.78552 | -104.66100 | 6379 ft | 162 kts | 355° |
| 2026-05-04 19:02 | 39.79704 | -104.66088 | 6157 ft | 167 kts | 356° |
| 2026-05-04 19:02 | 39.80847 | -104.66075 | 5952 ft | 160 kts | 356° |
| 2026-05-04 19:02 | 39.81937 | -104.66062 | 5681 ft | 153 kts | 357° |
| 2026-05-04 19:03 | 39.83007 | -104.66050 | 5468 ft | 154 kts | 356° |
| 2026-05-04 19:03 | 39.83687 | -104.66042 | 5436 ft | 140 kts | 356° |
| 2026-05-04 19:03 | 39.84560 | -104.66039 | 5412 ft | 104 kts | 359° |
| 2026-05-04 19:03 | 39.84993 | -104.66037 | 5398 ft | 44 kts | 359° |
| 2026-05-04 19:04 | 39.85243 | -104.66120 | 5394 ft | 19 kts | 328° |
| 2026-05-04 19:04 | 39.85260 | -104.66134 | 5393 ft | 0 kts | 328° |
| 2026-05-04 19:05 | 39.85261 | -104.66135 | 5394 ft | 1 kts | 328° |
| 2026-05-04 19:05 | 39.85273 | -104.66145 | 5392 ft | 5 kts | 328° |
| 2026-05-04 19:05 | 39.85352 | -104.66199 | 5394 ft | 20 kts | 336° |
| 2026-05-04 19:05 | 39.85492 | -104.66238 | 5397 ft | 21 kts | 354° |
| 2026-05-04 19:06 | 39.85635 | -104.66257 | 5394 ft | 21 kts | 355° |
| 2026-05-04 19:06 | 39.85777 | -104.66235 | 5387 ft | 20 kts | 6° |
| 2026-05-04 19:06 | 39.85918 | -104.66238 | 5391 ft | 20 kts | 358° |
| 2026-05-04 19:06 | 39.86059 | -104.66237 | 5388 ft | 20 kts | 1° |
| 2026-05-04 19:07 | 39.86200 | -104.66234 | 5389 ft | 20 kts | 1° |
| 2026-05-04 19:07 | 39.86342 | -104.66230 | 5384 ft | 20 kts | 1° |
| 2026-05-04 19:07 | 39.86483 | -104.66232 | 5382 ft | 20 kts | 358° |
| 2026-05-04 19:07 | 39.86624 | -104.66226 | 5380 ft | 20 kts | 2° |
| 2026-05-04 19:08 | 39.86765 | -104.66225 | 5376 ft | 20 kts | 359° |
| 2026-05-04 19:08 | 39.86905 | -104.66212 | 5372 ft | 20 kts | 1° |
| 2026-05-04 19:08 | 39.87042 | -104.66223 | 5368 ft | 20 kts | 340° |
| 2026-05-04 19:08 | 39.87098 | -104.66337 | 5368 ft | 15 kts | 273° |
| 2026-05-04 19:09 | 39.87112 | -104.66471 | 5366 ft | 16 kts | 316° |
| 2026-05-04 19:09 | 39.87192 | -104.66504 | 5365 ft | 9 kts | 322° |
| 2026-05-04 19:09 | 39.87202 | -104.66576 | 5362 ft | 0 kts | 270° |